sensor_id;sensor_type;location;lat;lon;timestamp;pressure;altitude;pressure_sealevel;temperature;humidity
34374;BME280;20637;55.770;37.592;2023-05-28T00:00:50;99663.41;;;12.61;54.84
34374;BME280;20637;55.770;37.592;2023-05-28T00:03:15;99668.84;;;12.61;55.43
34374;BME280;20637;55.770;37.592;2023-05-28T00:05:45;99660.59;;;12.55;54.65
34374;BME280;20637;55.770;37.592;2023-05-28T00:08:11;99652.66;;;12.53;54.72
34374;BME280;20637;55.770;37.592;2023-05-28T00:10:39;99653.88;;;12.51;55.06
34374;BME280;20637;55.770;37.592;2023-05-28T00:13:04;99657.75;;;12.48;54.93
34374;BME280;20637;55.770;37.592;2023-05-28T00:15:30;99662.16;;;12.49;55.14
34374;BME280;20637;55.770;37.592;2023-05-28T00:17:55;99663.38;;;12.47;55.74
34374;BME280;20637;55.770;37.592;2023-05-28T00:20:22;99662.19;;;12.41;55.56
34374;BME280;20637;55.770;37.592;2023-05-28T00:22:47;99661.06;;;12.35;55.63
34374;BME280;20637;55.770;37.592;2023-05-28T00:25:14;99664.59;;;12.36;55.67
34374;BME280;20637;55.770;37.592;2023-05-28T00:27:39;99656.84;;;12.33;55.49
34374;BME280;20637;55.770;37.592;2023-05-28T00:30:05;99663.47;;;12.30;56.14
34374;BME280;20637;55.770;37.592;2023-05-28T00:32:31;99659.25;;;12.28;55.44
34374;BME280;20637;55.770;37.592;2023-05-28T00:34:56;99663.81;;;12.27;55.85
34374;BME280;20637;55.770;37.592;2023-05-28T00:37:22;99660.28;;;12.27;56.05
34374;BME280;20637;55.770;37.592;2023-05-28T00:39:48;99656.56;;;12.28;55.69
34374;BME280;20637;55.770;37.592;2023-05-28T00:42:13;99651.31;;;12.26;55.26
34374;BME280;20637;55.770;37.592;2023-05-28T00:44:39;99653.84;;;12.28;55.07
34374;BME280;20637;55.770;37.592;2023-05-28T00:47:05;99652.31;;;12.25;56.05
34374;BME280;20637;55.770;37.592;2023-05-28T00:49:31;99664.16;;;12.24;55.86
34374;BME280;20637;55.770;37.592;2023-05-28T00:51:58;99662.53;;;12.15;56.14
34374;BME280;20637;55.770;37.592;2023-05-28T00:54:24;99662.38;;;12.09;56.16
34374;BME280;20637;55.770;37.592;2023-05-28T00:56:51;99654.81;;;12.04;56.19
34374;BME280;20637;55.770;37.592;2023-05-28T00:59:17;99657.69;;;12.03;56.40
34374;BME280;20637;55.770;37.592;2023-05-28T01:01:43;99667.88;;;12.01;57.15
34374;BME280;20637;55.770;37.592;2023-05-28T01:04:09;99662.44;;;12.01;57.67
34374;BME280;20637;55.770;37.592;2023-05-28T01:06:34;99648.06;;;12.00;56.84
34374;BME280;20637;55.770;37.592;2023-05-28T01:09:04;99655.03;;;11.94;57.54
34374;BME280;20637;55.770;37.592;2023-05-28T01:11:29;99655.91;;;11.87;57.31
34374;BME280;20637;55.770;37.592;2023-05-28T01:13:56;99654.94;;;11.80;57.82
34374;BME280;20637;55.770;37.592;2023-05-28T01:16:21;99657.47;;;11.81;57.59
34374;BME280;20637;55.770;37.592;2023-05-28T01:18:47;99661.50;;;11.85;57.60
34374;BME280;20637;55.770;37.592;2023-05-28T01:21:14;99652.19;;;11.88;57.50
34374;BME280;20637;55.770;37.592;2023-05-28T01:23:47;99656.59;;;11.89;57.73
34374;BME280;20637;55.770;37.592;2023-05-28T01:26:13;99660.66;;;11.85;57.75
34374;BME280;20637;55.770;37.592;2023-05-28T01:28:39;99664.25;;;11.77;58.22
34374;BME280;20637;55.770;37.592;2023-05-28T01:31:10;99667.97;;;11.76;57.81
34374;BME280;20637;55.770;37.592;2023-05-28T01:33:35;99661.19;;;11.80;58.57
34374;BME280;20637;55.770;37.592;2023-05-28T01:36:03;99668.13;;;11.67;58.94
34374;BME280;20637;55.770;37.592;2023-05-28T01:38:31;99678.66;;;11.54;58.98
34374;BME280;20637;55.770;37.592;2023-05-28T01:40:59;99674.25;;;11.53;59.16
34374;BME280;20637;55.770;37.592;2023-05-28T01:43:25;99677.31;;;11.50;59.31
34374;BME280;20637;55.770;37.592;2023-05-28T01:45:51;99673.63;;;11.42;58.93
34374;BME280;20637;55.770;37.592;2023-05-28T01:48:16;99683.94;;;11.39;59.34
34374;BME280;20637;55.770;37.592;2023-05-28T01:50:42;99680.88;;;11.42;59.98
34374;BME280;20637;55.770;37.592;2023-05-28T01:53:08;99684.94;;;11.38;60.38
34374;BME280;20637;55.770;37.592;2023-05-28T01:55:33;99671.94;;;11.33;60.21
34374;BME280;20637;55.770;37.592;2023-05-28T01:57:59;99679.88;;;11.35;60.30
34374;BME280;20637;55.770;37.592;2023-05-28T02:00:25;99670.25;;;11.32;59.71
34374;BME280;20637;55.770;37.592;2023-05-28T02:02:52;99666.38;;;11.35;59.79
34374;BME280;20637;55.770;37.592;2023-05-28T02:05:19;99677.00;;;11.36;59.82
34374;BME280;20637;55.770;37.592;2023-05-28T02:07:44;99674.47;;;11.35;60.15
34374;BME280;20637;55.770;37.592;2023-05-28T02:10:11;99685.94;;;11.37;59.94
34374;BME280;20637;55.770;37.592;2023-05-28T02:12:36;99671.44;;;11.38;59.41
34374;BME280;20637;55.770;37.592;2023-05-28T02:15:02;99677.00;;;11.36;59.93
34374;BME280;20637;55.770;37.592;2023-05-28T02:17:28;99682.41;;;11.28;60.19
34374;BME280;20637;55.770;37.592;2023-05-28T02:20:14;99687.31;;;11.25;60.48
34374;BME280;20637;55.770;37.592;2023-05-28T02:22:40;99688.31;;;11.24;60.75
34374;BME280;20637;55.770;37.592;2023-05-28T02:25:06;99686.81;;;11.21;61.04
34374;BME280;20637;55.770;37.592;2023-05-28T02:27:31;99677.84;;;11.21;60.56
34374;BME280;20637;55.770;37.592;2023-05-28T02:29:57;99685.31;;;11.27;60.97
34374;BME280;20637;55.770;37.592;2023-05-28T02:32:22;99683.97;;;11.23;60.84
34374;BME280;20637;55.770;37.592;2023-05-28T02:34:48;99682.91;;;11.24;60.64
34374;BME280;20637;55.770;37.592;2023-05-28T02:37:14;99688.84;;;11.27;60.68
34374;BME280;20637;55.770;37.592;2023-05-28T02:39:39;99684.63;;;11.25;61.14
34374;BME280;20637;55.770;37.592;2023-05-28T02:42:04;99688.50;;;11.30;60.92
34374;BME280;20637;55.770;37.592;2023-05-28T02:44:30;99688.81;;;11.35;60.86
34374;BME280;20637;55.770;37.592;2023-05-28T02:46:56;99687.44;;;11.39;61.34
34374;BME280;20637;55.770;37.592;2023-05-28T02:49:22;99691.50;;;11.43;60.85
34374;BME280;20637;55.770;37.592;2023-05-28T02:51:47;99678.34;;;11.40;60.77
34374;BME280;20637;55.770;37.592;2023-05-28T02:54:33;99681.03;;;11.40;60.52
34374;BME280;20637;55.770;37.592;2023-05-28T02:56:59;99680.69;;;11.43;60.67
34374;BME280;20637;55.770;37.592;2023-05-28T02:59:24;99688.63;;;11.53;60.68
34374;BME280;20637;55.770;37.592;2023-05-28T03:01:50;99688.94;;;11.58;60.29
34374;BME280;20637;55.770;37.592;2023-05-28T03:04:15;99688.09;;;11.58;60.19
34374;BME280;20637;55.770;37.592;2023-05-28T03:06:42;99683.53;;;11.58;61.01
34374;BME280;20637;55.770;37.592;2023-05-28T03:09:07;99687.25;;;11.57;60.70
34374;BME280;20637;55.770;37.592;2023-05-28T03:11:32;99691.81;;;11.57;60.85
34374;BME280;20637;55.770;37.592;2023-05-28T03:13:58;99692.53;;;11.51;60.83
34374;BME280;20637;55.770;37.592;2023-05-28T03:16:23;99689.13;;;11.48;60.98
34374;BME280;20637;55.770;37.592;2023-05-28T03:18:51;99701.63;;;11.58;61.16
34374;BME280;20637;55.770;37.592;2023-05-28T03:21:17;99689.09;;;11.65;61.04
34374;BME280;20637;55.770;37.592;2023-05-28T03:23:43;99676.59;;;11.64;61.50
34374;BME280;20637;55.770;37.592;2023-05-28T03:26:20;99684.06;;;11.54;61.69
34374;BME280;20637;55.770;37.592;2023-05-28T03:28:47;99703.50;;;11.49;61.56
34374;BME280;20637;55.770;37.592;2023-05-28T03:31:26;99704.16;;;11.51;61.50
34374;BME280;20637;55.770;37.592;2023-05-28T03:33:52;99698.72;;;11.59;61.32
34374;BME280;20637;55.770;37.592;2023-05-28T03:36:18;99699.72;;;11.66;61.14
34374;BME280;20637;55.770;37.592;2023-05-28T03:38:43;99703.75;;;11.70;61.22
34374;BME280;20637;55.770;37.592;2023-05-28T03:41:09;99699.72;;;11.74;61.11
34374;BME280;20637;55.770;37.592;2023-05-28T03:43:34;99700.56;;;11.83;60.96
34374;BME280;20637;55.770;37.592;2023-05-28T03:46:00;99695.06;;;11.99;61.33
34374;BME280;20637;55.770;37.592;2023-05-28T03:48:26;99697.78;;;11.99;60.79
34374;BME280;20637;55.770;37.592;2023-05-28T03:50:52;99703.69;;;12.03;60.78
34374;BME280;20637;55.770;37.592;2023-05-28T03:53:18;99703.81;;;12.09;60.42
34374;BME280;20637;55.770;37.592;2023-05-28T03:55:44;99691.31;;;12.08;60.25
34374;BME280;20637;55.770;37.592;2023-05-28T03:58:12;99700.41;;;12.15;60.28
34374;BME280;20637;55.770;37.592;2023-05-28T04:00:40;99695.25;;;12.28;60.50
34374;BME280;20637;55.770;37.592;2023-05-28T04:03:06;99701.00;;;12.33;60.50
34374;BME280;20637;55.770;37.592;2023-05-28T04:05:34;99700.31;;;12.39;60.04
34374;BME280;20637;55.770;37.592;2023-05-28T04:07:59;99696.03;;;12.45;60.17
34374;BME280;20637;55.770;37.592;2023-05-28T04:10:25;99692.06;;;12.56;59.49
34374;BME280;20637;55.770;37.592;2023-05-28T04:12:52;99692.19;;;12.62;59.82
34374;BME280;20637;55.770;37.592;2023-05-28T04:15:18;99702.84;;;12.64;59.47
34374;BME280;20637;55.770;37.592;2023-05-28T04:17:44;99700.59;;;12.67;60.24
34374;BME280;20637;55.770;37.592;2023-05-28T04:20:09;99703.31;;;12.67;60.22
34374;BME280;20637;55.770;37.592;2023-05-28T04:22:35;99705.78;;;12.77;60.10
34374;BME280;20637;55.770;37.592;2023-05-28T04:25:01;99700.69;;;12.82;59.48
34374;BME280;20637;55.770;37.592;2023-05-28T04:27:27;99699.09;;;12.87;59.24
34374;BME280;20637;55.770;37.592;2023-05-28T04:29:53;99707.59;;;12.84;59.51
34374;BME280;20637;55.770;37.592;2023-05-28T04:32:20;99705.78;;;12.77;59.67
34374;BME280;20637;55.770;37.592;2023-05-28T04:34:45;99704.00;;;12.69;60.16
34374;BME280;20637;55.770;37.592;2023-05-28T04:37:12;99710.31;;;12.62;59.65
34374;BME280;20637;55.770;37.592;2023-05-28T04:39:37;99710.25;;;12.47;60.52
34374;BME280;20637;55.770;37.592;2023-05-28T04:42:03;99709.44;;;12.38;60.42
34374;BME280;20637;55.770;37.592;2023-05-28T04:44:31;99710.31;;;12.31;60.57
34374;BME280;20637;55.770;37.592;2023-05-28T04:47:00;99702.81;;;12.41;61.00
34374;BME280;20637;55.770;37.592;2023-05-28T04:49:26;99708.22;;;12.41;60.39
34374;BME280;20637;55.770;37.592;2023-05-28T04:51:51;99700.41;;;12.46;60.68
34374;BME280;20637;55.770;37.592;2023-05-28T04:54:17;99702.59;;;12.51;60.44
34374;BME280;20637;55.770;37.592;2023-05-28T04:56:43;99702.41;;;12.52;60.37
34374;BME280;20637;55.770;37.592;2023-05-28T04:59:09;99702.22;;;12.54;60.41
34374;BME280;20637;55.770;37.592;2023-05-28T05:01:35;99700.69;;;12.51;60.05
34374;BME280;20637;55.770;37.592;2023-05-28T05:04:02;99705.31;;;12.51;61.26
34374;BME280;20637;55.770;37.592;2023-05-28T05:06:28;99709.56;;;12.45;60.54
34374;BME280;20637;55.770;37.592;2023-05-28T05:08:53;99703.50;;;12.43;60.65
34374;BME280;20637;55.770;37.592;2023-05-28T05:11:19;99705.47;;;12.49;61.02
34374;BME280;20637;55.770;37.592;2023-05-28T05:13:45;99706.75;;;12.61;60.74
34374;BME280;20637;55.770;37.592;2023-05-28T05:16:12;99707.66;;;12.76;59.81
34374;BME280;20637;55.770;37.592;2023-05-28T05:18:37;99703.81;;;12.94;60.18
34374;BME280;20637;55.770;37.592;2023-05-28T05:21:03;99705.72;;;13.08;59.93
34374;BME280;20637;55.770;37.592;2023-05-28T05:23:28;99705.72;;;13.08;59.76
34374;BME280;20637;55.770;37.592;2023-05-28T05:25:54;99712.22;;;12.99;59.31
34374;BME280;20637;55.770;37.592;2023-05-28T05:28:19;99715.47;;;12.94;59.25
34374;BME280;20637;55.770;37.592;2023-05-28T05:30:44;99720.25;;;12.92;59.89
34374;BME280;20637;55.770;37.592;2023-05-28T05:33:10;99710.78;;;12.88;59.91
34374;BME280;20637;55.770;37.592;2023-05-28T05:35:56;99714.75;;;13.00;59.52
34374;BME280;20637;55.770;37.592;2023-05-28T05:38:38;99710.06;;;13.17;60.05
34374;BME280;20637;55.770;37.592;2023-05-28T05:41:22;99711.88;;;13.24;58.97
34374;BME280;20637;55.770;37.592;2023-05-28T05:44:07;99713.06;;;13.22;58.86
34374;BME280;20637;55.770;37.592;2023-05-28T05:46:32;99721.56;;;13.19;58.69
34374;BME280;20637;55.770;37.592;2023-05-28T05:48:58;99712.59;;;13.18;58.88
34374;BME280;20637;55.770;37.592;2023-05-28T05:51:23;99719.72;;;13.19;58.89
34374;BME280;20637;55.770;37.592;2023-05-28T05:53:49;99724.13;;;13.20;59.68
34374;BME280;20637;55.770;37.592;2023-05-28T05:56:14;99715.78;;;13.22;59.29
34374;BME280;20637;55.770;37.592;2023-05-28T05:58:40;99724.38;;;13.25;59.19
34374;BME280;20637;55.770;37.592;2023-05-28T06:01:08;99722.53;;;13.26;59.82
34374;BME280;20637;55.770;37.592;2023-05-28T06:03:35;99728.97;;;13.25;59.18
34374;BME280;20637;55.770;37.592;2023-05-28T06:06:09;99722.97;;;13.15;59.83
34374;BME280;20637;55.770;37.592;2023-05-28T06:08:53;99741.66;;;13.02;59.52
34374;BME280;20637;55.770;37.592;2023-05-28T06:11:34;99742.69;;;13.01;59.99
34374;BME280;20637;55.770;37.592;2023-05-28T06:14:00;99750.00;;;13.00;60.17
34374;BME280;20637;55.770;37.592;2023-05-28T06:16:26;99748.13;;;13.01;59.66
34374;BME280;20637;55.770;37.592;2023-05-28T06:18:51;99758.47;;;12.97;60.00
34374;BME280;20637;55.770;37.592;2023-05-28T06:21:17;99763.16;;;12.80;60.28
34374;BME280;20637;55.770;37.592;2023-05-28T06:23:43;99767.78;;;12.72;60.37
34374;BME280;20637;55.770;37.592;2023-05-28T06:26:09;99762.00;;;12.75;60.62
34374;BME280;20637;55.770;37.592;2023-05-28T06:28:35;99759.97;;;12.77;60.47
34374;BME280;20637;55.770;37.592;2023-05-28T06:31:00;99767.25;;;12.76;60.57
34374;BME280;20637;55.770;37.592;2023-05-28T06:33:26;99760.63;;;12.79;60.93
34374;BME280;20637;55.770;37.592;2023-05-28T06:35:51;99764.66;;;12.83;60.70
34374;BME280;20637;55.770;37.592;2023-05-28T06:38:17;99767.38;;;12.83;60.80
34374;BME280;20637;55.770;37.592;2023-05-28T06:40:42;99770.22;;;12.89;60.81
34374;BME280;20637;55.770;37.592;2023-05-28T06:43:08;99769.72;;;12.86;60.71
34374;BME280;20637;55.770;37.592;2023-05-28T06:45:54;99768.63;;;12.95;60.75
34374;BME280;20637;55.770;37.592;2023-05-28T06:48:22;99768.47;;;12.97;61.15
34374;BME280;20637;55.770;37.592;2023-05-28T06:50:48;99771.41;;;12.87;60.70
34374;BME280;20637;55.770;37.592;2023-05-28T06:53:15;99786.38;;;12.75;60.83
34374;BME280;20637;55.770;37.592;2023-05-28T06:55:40;99789.44;;;12.72;61.47
34374;BME280;20637;55.770;37.592;2023-05-28T06:58:26;99795.38;;;12.67;61.45
34374;BME280;20637;55.770;37.592;2023-05-28T07:01:14;99786.41;;;12.67;61.07
34374;BME280;20637;55.770;37.592;2023-05-28T07:04:02;99781.69;;;12.69;60.63
34374;BME280;20637;55.770;37.592;2023-05-28T07:06:32;99788.78;;;12.70;60.82
34374;BME280;20637;55.770;37.592;2023-05-28T07:08:59;99782.53;;;12.69;61.66
34374;BME280;20637;55.770;37.592;2023-05-28T07:11:25;99785.28;;;12.61;61.88
34374;BME280;20637;55.770;37.592;2023-05-28T07:13:52;99791.25;;;12.49;62.56
34374;BME280;20637;55.770;37.592;2023-05-28T07:16:21;99792.81;;;12.43;63.45
34374;BME280;20637;55.770;37.592;2023-05-28T07:18:48;99789.50;;;12.25;63.09
34374;BME280;20637;55.770;37.592;2023-05-28T07:21:14;99790.88;;;12.13;63.55
34374;BME280;20637;55.770;37.592;2023-05-28T07:23:44;99793.66;;;12.05;64.38
34374;BME280;20637;55.770;37.592;2023-05-28T07:26:09;99787.91;;;12.00;65.08
34374;BME280;20637;55.770;37.592;2023-05-28T07:28:35;99794.19;;;11.92;65.63
34374;BME280;20637;55.770;37.592;2023-05-28T07:31:01;99786.94;;;11.84;66.38
34374;BME280;20637;55.770;37.592;2023-05-28T07:33:27;99782.69;;;11.82;67.37
34374;BME280;20637;55.770;37.592;2023-05-28T07:35:52;99781.69;;;11.75;67.34
34374;BME280;20637;55.770;37.592;2023-05-28T07:38:17;99777.13;;;11.75;68.32
34374;BME280;20637;55.770;37.592;2023-05-28T07:40:46;99776.97;;;11.77;67.79
34374;BME280;20637;55.770;37.592;2023-05-28T07:43:23;99779.16;;;11.81;67.17
34374;BME280;20637;55.770;37.592;2023-05-28T07:45:52;99778.97;;;11.91;67.32
34374;BME280;20637;55.770;37.592;2023-05-28T07:48:17;99779.78;;;12.00;67.11
34374;BME280;20637;55.770;37.592;2023-05-28T07:50:57;99778.59;;;11.94;68.41
34374;BME280;20637;55.770;37.592;2023-05-28T07:53:34;99784.22;;;11.92;68.91
34374;BME280;20637;55.770;37.592;2023-05-28T07:56:02;99779.47;;;11.86;68.96
34374;BME280;20637;55.770;37.592;2023-05-28T07:58:30;99783.22;;;11.85;68.97
34374;BME280;20637;55.770;37.592;2023-05-28T08:00:56;99781.81;;;11.89;68.82
34374;BME280;20637;55.770;37.592;2023-05-28T08:03:22;99781.31;;;11.94;68.98
34374;BME280;20637;55.770;37.592;2023-05-28T08:05:49;99787.41;;;11.96;69.46
34374;BME280;20637;55.770;37.592;2023-05-28T08:08:15;99782.34;;;11.93;69.33
34374;BME280;20637;55.770;37.592;2023-05-28T08:10:41;99784.88;;;11.94;69.25
34374;BME280;20637;55.770;37.592;2023-05-28T08:13:06;99791.63;;;11.99;68.97
34374;BME280;20637;55.770;37.592;2023-05-28T08:15:32;99789.75;;;11.99;70.40
34374;BME280;20637;55.770;37.592;2023-05-28T08:17:59;99786.56;;;11.96;71.17
34374;BME280;20637;55.770;37.592;2023-05-28T08:20:25;99778.13;;;11.82;70.42
34374;BME280;20637;55.770;37.592;2023-05-28T08:23:12;99779.34;;;11.80;71.50
34374;BME280;20637;55.770;37.592;2023-05-28T08:25:37;99769.16;;;11.82;71.09
34374;BME280;20637;55.770;37.592;2023-05-28T08:28:08;99781.16;;;11.87;71.57
34374;BME280;20637;55.770;37.592;2023-05-28T08:30:35;99793.69;;;11.88;71.40
34374;BME280;20637;55.770;37.592;2023-05-28T08:33:09;99796.41;;;11.88;70.69
34374;BME280;20637;55.770;37.592;2023-05-28T08:35:35;99803.63;;;11.96;70.78
34374;BME280;20637;55.770;37.592;2023-05-28T08:38:03;99812.75;;;12.03;70.66
34374;BME280;20637;55.770;37.592;2023-05-28T08:40:48;99808.16;;;12.12;70.15
34374;BME280;20637;55.770;37.592;2023-05-28T08:43:14;99803.53;;;12.20;70.38
34374;BME280;20637;55.770;37.592;2023-05-28T08:45:39;99799.47;;;12.24;70.52
34374;BME280;20637;55.770;37.592;2023-05-28T08:48:08;99806.72;;;12.32;70.04
34374;BME280;20637;55.770;37.592;2023-05-28T08:50:35;99801.44;;;12.47;69.61
34374;BME280;20637;55.770;37.592;2023-05-28T08:53:13;99800.81;;;12.67;69.99
34374;BME280;20637;55.770;37.592;2023-05-28T08:55:43;99811.88;;;12.88;69.81
34374;BME280;20637;55.770;37.592;2023-05-28T08:58:13;99802.66;;;12.98;69.63
34374;BME280;20637;55.770;37.592;2023-05-28T09:00:40;99803.78;;;13.11;69.10
34374;BME280;20637;55.770;37.592;2023-05-28T09:03:24;99804.28;;;13.15;69.21
34374;BME280;20637;55.770;37.592;2023-05-28T09:05:52;99807.94;;;13.22;68.98
34374;BME280;20637;55.770;37.592;2023-05-28T09:08:19;99813.34;;;13.45;68.43
34374;BME280;20637;55.770;37.592;2023-05-28T09:10:44;99802.22;;;13.77;68.48
34374;BME280;20637;55.770;37.592;2023-05-28T09:13:10;99792.41;;;13.91;67.33
34374;BME280;20637;55.770;37.592;2023-05-28T09:15:35;99801.31;;;13.99;66.85
34374;BME280;20637;55.770;37.592;2023-05-28T09:18:05;99798.03;;;14.04;67.04
34374;BME280;20637;55.770;37.592;2023-05-28T09:20:31;99795.22;;;14.26;67.09
34374;BME280;20637;55.770;37.592;2023-05-28T09:25:39;99798.16;;;14.40;65.32
34374;BME280;20637;55.770;37.592;2023-05-28T09:28:11;99801.13;;;14.30;65.79
34374;BME280;20637;55.770;37.592;2023-05-28T09:30:40;99800.19;;;14.23;65.59
34374;BME280;20637;55.770;37.592;2023-05-28T09:33:06;99790.47;;;14.28;65.10
34374;BME280;20637;55.770;37.592;2023-05-28T09:35:32;99794.00;;;14.29;65.05
34374;BME280;20637;55.770;37.592;2023-05-28T09:38:19;99793.75;;;14.39;64.74
34374;BME280;20637;55.770;37.592;2023-05-28T09:40:49;99796.16;;;14.48;64.15
34374;BME280;20637;55.770;37.592;2023-05-28T09:43:14;99798.78;;;14.56;63.55
34374;BME280;20637;55.770;37.592;2023-05-28T09:45:40;99788.19;;;14.61;63.77
34374;BME280;20637;55.770;37.592;2023-05-28T09:48:05;99793.97;;;14.73;63.28
34374;BME280;20637;55.770;37.592;2023-05-28T09:50:30;99778.03;;;14.85;63.26
34374;BME280;20637;55.770;37.592;2023-05-28T09:52:57;99767.22;;;15.12;63.08
34374;BME280;20637;55.770;37.592;2023-05-28T09:55:23;99777.25;;;15.33;61.89
34374;BME280;20637;55.770;37.592;2023-05-28T10:00:33;99783.47;;;15.48;60.52
34374;BME280;20637;55.770;37.592;2023-05-28T10:05:26;99781.53;;;15.42;58.35
34374;BME280;20637;55.770;37.592;2023-05-28T10:07:53;99787.38;;;15.39;58.25
34374;BME280;20637;55.770;37.592;2023-05-28T10:10:20;99788.00;;;15.41;58.26
34374;BME280;20637;55.770;37.592;2023-05-28T10:12:46;99777.84;;;15.50;57.96
34374;BME280;20637;55.770;37.592;2023-05-28T10:15:13;99787.75;;;15.57;58.07
34374;BME280;20637;55.770;37.592;2023-05-28T10:17:38;99767.41;;;15.53;57.36
34374;BME280;20637;55.770;37.592;2023-05-28T10:20:04;99782.00;;;15.67;57.88
34374;BME280;20637;55.770;37.592;2023-05-28T10:22:30;99773.47;;;15.77;57.41
34374;BME280;20637;55.770;37.592;2023-05-28T10:24:57;99774.84;;;15.94;57.65
34374;BME280;20637;55.770;37.592;2023-05-28T10:27:28;99764.47;;;16.10;56.68
34374;BME280;20637;55.770;37.592;2023-05-28T10:29:54;99760.56;;;16.19;56.31
34374;BME280;20637;55.770;37.592;2023-05-28T10:32:19;99765.13;;;16.12;55.69
34374;BME280;20637;55.770;37.592;2023-05-28T10:34:45;99763.66;;;16.10;56.41
34374;BME280;20637;55.770;37.592;2023-05-28T10:37:10;99758.84;;;16.18;56.18
34374;BME280;20637;55.770;37.592;2023-05-28T10:39:36;99771.84;;;16.16;55.84
34374;BME280;20637;55.770;37.592;2023-05-28T10:42:02;99768.09;;;16.17;56.01
34374;BME280;20637;55.770;37.592;2023-05-28T10:44:47;99775.97;;;16.06;55.34
34374;BME280;20637;55.770;37.592;2023-05-28T10:47:13;99762.41;;;16.12;56.24
34374;BME280;20637;55.770;37.592;2023-05-28T10:49:38;99759.94;;;16.17;55.42
34374;BME280;20637;55.770;37.592;2023-05-28T10:52:22;99760.63;;;16.33;55.53
34374;BME280;20637;55.770;37.592;2023-05-28T10:54:47;99755.50;;;16.57;55.18
34374;BME280;20637;55.770;37.592;2023-05-28T10:59:46;99765.22;;;16.73;53.66
34374;BME280;20637;55.770;37.592;2023-05-28T11:02:15;99748.44;;;16.70;53.76
34374;BME280;20637;55.770;37.592;2023-05-28T11:04:41;99748.69;;;16.81;54.10
34374;BME280;20637;55.770;37.592;2023-05-28T11:07:07;99751.03;;;16.91;53.87
34374;BME280;20637;55.770;37.592;2023-05-28T11:09:32;99741.59;;;17.00;53.10
34374;BME280;20637;55.770;37.592;2023-05-28T11:11:58;99737.16;;;16.92;53.25
34374;BME280;20637;55.770;37.592;2023-05-28T11:14:28;99740.75;;;16.93;53.35
34374;BME280;20637;55.770;37.592;2023-05-28T11:16:54;99745.34;;;16.92;52.35
34374;BME280;20637;55.770;37.592;2023-05-28T11:19:19;99744.94;;;16.95;52.31
34374;BME280;20637;55.770;37.592;2023-05-28T11:21:51;99738.47;;;17.09;51.89
34374;BME280;20637;55.770;37.592;2023-05-28T11:24:16;99745.19;;;17.20;51.90
34374;BME280;20637;55.770;37.592;2023-05-28T11:26:42;99734.09;;;17.22;51.56
34374;BME280;20637;55.770;37.592;2023-05-28T11:29:08;99743.72;;;17.31;50.78
34374;BME280;20637;55.770;37.592;2023-05-28T11:31:37;99737.03;;;17.33;50.49
34374;BME280;20637;55.770;37.592;2023-05-28T11:34:03;99735.34;;;17.45;50.42
34374;BME280;20637;55.770;37.592;2023-05-28T11:36:29;99724.44;;;17.58;50.15
34374;BME280;20637;55.770;37.592;2023-05-28T11:39:01;99735.38;;;17.72;50.33
34374;BME280;20637;55.770;37.592;2023-05-28T11:41:27;99733.06;;;17.75;49.79
34374;BME280;20637;55.770;37.592;2023-05-28T11:43:53;99742.50;;;17.79;50.14
34374;BME280;20637;55.770;37.592;2023-05-28T11:46:21;99731.13;;;18.02;50.18
34374;BME280;20637;55.770;37.592;2023-05-28T11:48:46;99741.56;;;18.12;48.16
34374;BME280;20637;55.770;37.592;2023-05-28T11:51:12;99737.56;;;18.21;48.36
34374;BME280;20637;55.770;37.592;2023-05-28T11:53:41;99729.53;;;18.32;47.98
34374;BME280;20637;55.770;37.592;2023-05-28T11:56:10;99732.88;;;18.41;47.29
34374;BME280;20637;55.770;37.592;2023-05-28T11:58:37;99740.84;;;18.42;47.42
34374;BME280;20637;55.770;37.592;2023-05-28T12:01:05;99742.97;;;18.53;46.74
34374;BME280;20637;55.770;37.592;2023-05-28T12:03:30;99747.16;;;18.49;45.55
34374;BME280;20637;55.770;37.592;2023-05-28T12:05:56;99779.00;;;18.11;43.35
34374;BME280;20637;55.770;37.592;2023-05-28T12:08:21;99777.56;;;17.69;42.50
34374;BME280;20637;55.770;37.592;2023-05-28T12:10:47;99792.00;;;17.30;42.40
34374;BME280;20637;55.770;37.592;2023-05-28T12:13:12;99811.19;;;16.89;42.13
34374;BME280;20637;55.770;37.592;2023-05-28T12:15:38;99820.06;;;16.57;43.33
34374;BME280;20637;55.770;37.592;2023-05-28T12:18:03;99816.50;;;16.22;44.67
34374;BME280;20637;55.770;37.592;2023-05-28T12:23:01;99803.78;;;15.95;46.18
34374;BME280;20637;55.770;37.592;2023-05-28T12:25:27;99805.88;;;15.99;46.48
34374;BME280;20637;55.770;37.592;2023-05-28T12:27:52;99799.84;;;16.04;46.91
34374;BME280;20637;55.770;37.592;2023-05-28T12:30:18;99789.75;;;16.32;46.95
34374;BME280;20637;55.770;37.592;2023-05-28T12:32:43;99802.50;;;16.59;47.02
34374;BME280;20637;55.770;37.592;2023-05-28T12:35:08;99792.28;;;16.75;46.98
34374;BME280;20637;55.770;37.592;2023-05-28T12:37:34;99796.31;;;16.92;45.96
34374;BME280;20637;55.770;37.592;2023-05-28T12:40:00;99795.28;;;16.99;45.88
34374;BME280;20637;55.770;37.592;2023-05-28T12:42:25;99787.16;;;17.12;46.39
34374;BME280;20637;55.770;37.592;2023-05-28T12:44:51;99788.66;;;17.35;46.21
34374;BME280;20637;55.770;37.592;2023-05-28T12:47:16;99787.47;;;17.57;46.61
34374;BME280;20637;55.770;37.592;2023-05-28T12:49:41;99794.16;;;17.61;46.14
34374;BME280;20637;55.770;37.592;2023-05-28T12:52:07;99787.88;;;17.60;46.22
34374;BME280;20637;55.770;37.592;2023-05-28T12:54:33;99776.47;;;17.50;45.70
34374;BME280;20637;55.770;37.592;2023-05-28T12:56:58;99774.59;;;17.31;45.37
34374;BME280;20637;55.770;37.592;2023-05-28T12:59:24;99769.09;;;17.11;45.62
34374;BME280;20637;55.770;37.592;2023-05-28T13:01:50;99767.59;;;16.96;46.32
34374;BME280;20637;55.770;37.592;2023-05-28T13:04:16;99774.25;;;16.80;46.43